Hovedside
METAR-TAF:

METAR-TAF

Lufthavner :

Evenes, Norge

Harstad/Narvik lufthavn

breddegrad: 68-31N, lengdegrad: 016-41E, høyde over havet: 26 m

Gjeldene værobservasjon

Denne rapporten ble laget for 43 minutter siden, klokken 21:50 UTC
Vind 5 kt fra Nordøst
Temperatur 15°C
Luftfuktighet 77%
Trykk 1019 hPa
Sikt 10 km eller mer
ingen skyer under 1500 m og ingen bygeskyer

METAR: ENEV 242150Z 05005KT CAVOK 15/11 Q1019 RMK WIND 1400FT 01011KT

Tid: 00:33 (22:33 UTC)

Varsel

Denne rapporten ble laget for 2 timer og 33 minutter siden, klokken 20:00 UTC
Varsel gyldig fra 24. klokken 21 UTC til 24. klokken 24 UTC
Vind 8 kt fra Nord
Sikt 10 km eller mer
ingen skyer under 1500 m og ingen bygeskyer

TAF: ENEV 242000Z 2421/2424 36008KT CAVOK

Værobservasjoner og værvarsel for over 4000 flyplasser (METAR- og TAF-rapporter).

Tilgjengelige stasjoner er representert av de røde og gule prikkene på kartet.

Hold musepekeren over prikken for å se navnet på stasjonen.

Klikk så for å se værobservasjoner og -varsler.

For å forandre kartet kan du klikke på den grønne knappen med svart kryss for å zoome inn, på den grønne knappen med strek for å zoome ut, eller på de grønne pilene for å se tilstøtende kart.


METAR-TAF: